Time;durP1;ratioP1;P1;durP2;ratioP2;P2;SDS_P1;SDS_P2;PMS_P1;PMS_P2;Temp;Humidity;BMP_temperature;BMP_pressure;BME280_temperature;BME280_humidity;BME280_pressure;Samples;Min_cycle;Max_cycle;Signal;HPM_P1;HPM_P2
2023/05/15 00:00:29;;;;;;;8.70;8.10;;;16.10;99.90;;;;;;5048326;28;20219;-73
2023/05/15 00:02:55;;;;;;;7.97;7.47;;;16.00;99.90;;;;;;5047286;28;20431;-73
2023/05/15 00:05:21;;;;;;;8.40;7.80;;;16.00;99.90;;;;;;5048896;28;20188;-73
2023/05/15 00:07:47;;;;;;;9.53;8.73;;;16.00;99.90;;;;;;5049294;28;20400;-73
2023/05/15 00:10:13;;;;;;;9.10;8.40;;;16.00;99.90;;;;;;5047839;28;20189;-73
2023/05/15 00:12:39;;;;;;;9.50;8.80;;;16.00;99.90;;;;;;5030909;28;20189;-73
2023/05/15 00:15:05;;;;;;;9.10;8.40;;;15.90;99.90;;;;;;5049172;28;20211;-73
2023/05/15 00:17:31;;;;;;;9.00;8.27;;;15.90;99.90;;;;;;5046132;28;20713;-73
2023/05/15 00:19:58;;;;;;;9.27;8.67;;;15.90;99.90;;;;;;5031489;28;20421;-73
2023/05/15 00:22:24;;;;;;;9.27;8.63;;;15.90;99.90;;;;;;5038821;28;20193;-73
2023/05/15 00:24:50;;;;;;;9.47;8.77;;;15.90;99.90;;;;;;5048679;28;20774;-73
2023/05/15 00:27:16;;;;;;;9.70;9.00;;;15.80;99.90;;;;;;5048402;28;20407;-73
2023/05/15 00:29:42;;;;;;;9.40;8.80;;;15.80;99.90;;;;;;5029972;28;20416;-73
2023/05/15 00:32:08;;;;;;;9.10;8.43;;;15.80;99.90;;;;;;5047246;28;20177;-73
2023/05/15 00:34:33;;;;;;;10.30;9.10;;;15.80;99.90;;;;;;5029740;28;20633;-73
2023/05/15 00:36:59;;;;;;;9.00;8.40;;;15.80;99.90;;;;;;5047878;28;20219;-73
2023/05/15 00:39:25;;;;;;;9.10;8.23;;;15.80;99.90;;;;;;5048590;28;20246;-73
2023/05/15 00:41:52;;;;;;;8.90;8.20;;;15.80;99.90;;;;;;5048902;28;20406;-73
2023/05/15 00:44:19;;;;;;;8.73;8.13;;;15.80;99.90;;;;;;5047467;28;20181;-74
2023/05/15 00:46:45;;;;;;;9.70;8.83;;;15.70;99.90;;;;;;5048889;28;20803;-73
2023/05/15 00:49:12;;;;;;;9.10;8.40;;;15.70;99.90;;;;;;5048368;28;20917;-73
2023/05/15 00:51:41;;;;;;;8.80;8.20;;;15.60;99.90;;;;;;5047844;28;20771;-73
2023/05/15 00:54:07;;;;;;;8.77;8.17;;;15.60;99.90;;;;;;5049115;28;20414;-73
2023/05/15 00:56:33;;;;;;;8.40;7.70;;;15.60;99.90;;;;;;5051732;28;20443;-73
2023/05/15 00:59:02;;;;;;;9.53;8.67;;;15.60;99.90;;;;;;5052414;28;20465;-73
2023/05/15 01:01:33;;;;;;;9.40;8.63;;;15.60;99.90;;;;;;5046955;28;20444;-73
2023/05/15 01:04:00;;;;;;;8.73;8.13;;;15.60;99.90;;;;;;5051247;28;20505;-73
2023/05/15 01:06:25;;;;;;;9.13;8.43;;;15.50;99.90;;;;;;5051639;28;20880;-73
2023/05/15 01:08:55;;;;;;;9.17;8.43;;;15.50;99.90;;;;;;5052082;28;20496;-73
2023/05/15 01:11:23;;;;;;;9.00;8.40;;;15.40;99.90;;;;;;5051497;28;20643;-73
2023/05/15 01:13:49;;;;;;;8.43;7.83;;;15.40;99.90;;;;;;5050194;28;20838;-73
2023/05/15 01:16:14;;;;;;;8.77;8.23;;;15.30;99.90;;;;;;5035904;28;20483;-73
2023/05/15 01:18:40;;;;;;;8.50;8.00;;;15.30;99.90;;;;;;5050631;28;20191;-73
2023/05/15 01:21:09;;;;;;;8.60;8.00;;;15.30;99.90;;;;;;5048296;28;20267;-73
2023/05/15 01:23:58;;;;;;;8.40;7.80;;;15.20;99.90;;;;;;5051357;28;20258;-73
2023/05/15 01:26:27;;;;;;;8.93;8.33;;;15.10;99.90;;;;;;5055386;28;20485;-73
2023/05/15 01:29:03;;;;;;;8.83;8.33;;;15.00;99.90;;;;;;5054266;28;20423;-73
2023/05/15 01:31:31;;;;;;;8.03;7.53;;;15.00;99.90;;;;;;5055312;28;20844;-73
2023/05/15 01:34:02;;;;;;;7.90;7.40;;;15.00;99.90;;;;;;5055756;28;20493;-73
2023/05/15 01:36:50;;;;;;;8.13;7.60;;;15.00;99.90;;;;;;5054113;28;20486;-73
2023/05/15 01:39:25;;;;;;;8.50;7.90;;;15.00;99.90;;;;;;5055657;28;20403;-73
2023/05/15 01:41:57;;;;;;;9.00;8.10;;;15.00;99.90;;;;;;5055730;28;20416;-73
2023/05/15 01:44:33;;;;;;;8.10;7.50;;;15.00;99.90;;;;;;5055326;28;20391;-73
2023/05/15 01:47:05;;;;;;;9.00;8.40;;;15.00;99.90;;;;;;5055729;28;20405;-72
2023/05/15 01:49:32;;;;;;;8.27;7.50;;;15.00;99.90;;;;;;5054978;28;20723;-73
2023/05/15 01:52:07;;;;;;;8.40;7.87;;;15.00;99.90;;;;;;5054327;28;20908;-73
2023/05/15 01:54:35;;;;;;;9.30;8.60;;;15.00;99.90;;;;;;5054854;28;20819;-73
2023/05/15 01:57:01;;;;;;;8.90;8.10;;;14.90;99.90;;;;;;5054329;28;20468;-73
2023/05/15 01:59:28;;;;;;;8.97;8.30;;;14.80;99.90;;;;;;5053522;28;20455;-73
2023/05/15 02:01:56;;;;;;;8.20;7.70;;;14.60;99.90;;;;;;5044593;28;20425;-73
2023/05/15 02:04:24;;;;;;;8.40;7.80;;;14.50;99.90;;;;;;5053844;28;20925;-73
2023/05/15 02:06:52;;;;;;;8.77;8.00;;;14.50;99.90;;;;;;5054742;28;20417;-73
2023/05/15 02:09:20;;;;;;;8.70;8.10;;;14.60;99.90;;;;;;5055235;28;20445;-73
2023/05/15 02:11:46;;;;;;;8.97;8.27;;;14.60;99.90;;;;;;5054506;28;20402;-74
2023/05/15 02:14:15;;;;;;;8.57;7.93;;;14.60;99.90;;;;;;5055016;28;20411;-74
2023/05/15 02:16:41;;;;;;;8.40;7.80;;;14.60;99.90;;;;;;5053382;28;20457;-73
2023/05/15 02:19:06;;;;;;;7.70;7.10;;;14.70;99.90;;;;;;5055039;28;20485;-73
2023/05/15 02:21:33;;;;;;;8.80;8.00;;;14.70;99.90;;;;;;5040954;28;20454;-73
2023/05/15 02:23:59;;;;;;;16.00;8.57;;;14.60;99.90;;;;;;5034882;28;20507;-73
2023/05/15 02:26:32;;;;;;;7.67;6.97;;;14.60;99.90;;;;;;5034347;28;20402;-74
2023/05/15 02:29:10;;;;;;;8.23;7.73;;;14.70;99.90;;;;;;5046497;28;20190;-73
2023/05/15 02:32:04;;;;;;;8.33;7.70;;;14.60;99.90;;;;;;5054162;28;20404;-74
2023/05/15 02:34:56;;;;;;;7.60;7.10;;;14.60;99.90;;;;;;5054234;28;20390;-74
2023/05/15 02:37:27;;;;;;;7.80;7.30;;;14.60;99.90;;;;;;4999282;28;20428;-74
2023/05/15 02:39:56;;;;;;;8.00;7.40;;;14.60;99.90;;;;;;5053535;28;20424;-74
2023/05/15 02:42:23;;;;;;;8.50;8.00;;;14.60;99.90;;;;;;5054316;28;20781;-74
2023/05/15 02:44:51;;;;;;;8.67;8.10;;;14.50;99.90;;;;;;5054490;28;20435;-74
2023/05/15 02:47:18;;;;;;;8.73;8.13;;;14.50;99.90;;;;;;5050727;28;20813;-74
2023/05/15 02:49:44;;;;;;;8.47;7.87;;;14.50;99.90;;;;;;5052134;28;20466;-73
2023/05/15 02:52:10;;;;;;;8.17;7.67;;;14.50;99.90;;;;;;5049762;28;20465;-73
2023/05/15 02:54:35;;;;;;;8.30;7.80;;;14.50;99.90;;;;;;5053349;28;20464;-73
2023/05/15 02:57:01;;;;;;;8.30;7.63;;;14.50;99.90;;;;;;5043189;28;20209;-74
2023/05/15 02:59:27;;;;;;;8.97;8.27;;;14.50;99.90;;;;;;5033050;28;20177;-73
2023/05/15 03:01:53;;;;;;;8.83;8.23;;;14.40;99.90;;;;;;5033800;28;20250;-73
2023/05/15 03:04:19;;;;;;;8.33;7.60;;;14.40;99.90;;;;;;5033754;28;20403;-73
2023/05/15 03:06:45;;;;;;;8.47;7.87;;;14.40;99.90;;;;;;5032954;28;20173;-73
2023/05/15 03:09:11;;;;;;;8.47;7.77;;;14.40;99.90;;;;;;5038914;28;20469;-73
2023/05/15 03:11:36;;;;;;;8.47;7.67;;;14.30;99.90;;;;;;5032895;28;20174;-74
2023/05/15 03:14:02;;;;;;;9.03;8.40;;;14.30;99.90;;;;;;5033591;28;20167;-73
2023/05/15 03:16:28;;;;;;;8.93;8.27;;;14.30;99.90;;;;;;5032391;28;20206;-73
2023/05/15 03:18:54;;;;;;;9.27;8.40;;;14.30;99.90;;;;;;5033478;28;20183;-73
2023/05/15 03:21:19;;;;;;;8.60;7.90;;;14.30;99.90;;;;;;5045737;28;20227;-73
2023/05/15 03:23:45;;;;;;;8.00;7.50;;;14.20;99.90;;;;;;5052413;28;20186;-73
2023/05/15 03:26:11;;;;;;;8.43;7.83;;;14.20;99.90;;;;;;5047710;28;20183;-73
2023/05/15 03:28:37;;;;;;;8.30;7.60;;;14.20;99.90;;;;;;5032523;28;20209;-73
2023/05/15 03:31:07;;;;;;;9.40;8.30;;;14.20;99.90;;;;;;5033241;28;20294;-74
2023/05/15 03:33:33;;;;;;;9.37;8.57;;;14.20;99.90;;;;;;5032657;28;20480;-74
2023/05/15 03:35:59;;;;;;;8.70;8.10;;;14.20;99.90;;;;;;5032561;28;20450;-74
2023/05/15 03:38:25;;;;;;;8.33;7.77;;;14.10;99.90;;;;;;5033061;28;20502;-74
2023/05/15 03:40:51;;;;;;;9.73;9.03;;;14.10;99.90;;;;;;5032198;28;20179;-74
2023/05/15 03:43:16;;;;;;;9.87;9.07;;;14.10;99.90;;;;;;5033383;28;20753;-74
2023/05/15 03:45:43;;;;;;;10.17;9.27;;;14.10;99.90;;;;;;5032398;28;20185;-75
2023/05/15 03:48:08;;;;;;;9.53;8.80;;;14.10;99.90;;;;;;5033774;28;20263;-74
2023/05/15 03:50:34;;;;;;;13.47;12.67;;;14.10;99.90;;;;;;5040646;28;20534;-73
2023/05/15 03:53:00;;;;;;;8.87;8.07;;;14.10;99.90;;;;;;5052699;28;20258;-73
2023/05/15 03:55:26;;;;;;;9.93;9.23;;;14.10;99.90;;;;;;5052819;28;20711;-73
2023/05/15 03:57:52;;;;;;;11.80;11.10;;;14.10;99.90;;;;;;5051986;28;20205;-73
2023/05/15 04:00:18;;;;;;;9.33;8.53;;;14.10;99.90;;;;;;5046667;28;20183;-73
2023/05/15 04:02:43;;;;;;;9.73;8.93;;;14.20;99.90;;;;;;5032030;28;20183;-74
2023/05/15 04:05:09;;;;;;;11.50;10.60;;;14.20;99.90;;;;;;5032936;28;20873;-73
2023/05/15 04:07:36;;;;;;;11.63;10.47;;;14.20;99.90;;;;;;5032046;28;20172;-75
2023/05/15 04:10:02;;;;;;;12.57;11.47;;;14.30;99.90;;;;;;5032699;28;20459;-73
2023/05/15 04:12:33;;;;;;;11.57;10.67;;;14.30;99.90;;;;;;5032390;28;20445;-73
2023/05/15 04:15:16;;;;;;;12.67;11.57;;;14.30;99.90;;;;;;5032322;28;20423;-73
2023/05/15 04:17:43;;;;;;;13.47;12.00;;;14.40;99.90;;;;;;5014898;28;20791;-73
2023/05/15 04:20:10;;;;;;;15.73;14.10;;;14.40;99.90;;;;;;5037616;28;20486;-73
2023/05/15 04:22:36;;;;;;;20.67;16.80;;;14.50;99.90;;;;;;5051408;28;20917;-73
2023/05/15 04:25:03;;;;;;;30.60;20.40;;;14.60;99.90;;;;;;5052258;28;20404;-73
2023/05/15 04:27:29;;;;;;;26.07;20.87;;;14.60;99.90;;;;;;5051314;28;20426;-73
2023/05/15 04:29:55;;;;;;;30.60;21.37;;;14.70;99.90;;;;;;5051483;28;20720;-73
2023/05/15 04:32:20;;;;;;;32.57;25.17;;;14.80;99.90;;;;;;5052261;28;20406;-73
2023/05/15 04:34:46;;;;;;;29.63;21.50;;;14.90;99.90;;;;;;5041099;28;20184;-73
2023/05/15 04:37:12;;;;;;;26.33;20.90;;;14.90;99.90;;;;;;5014490;28;20449;-73
2023/05/15 04:39:38;;;;;;;28.47;21.17;;;14.90;99.90;;;;;;5031356;28;20171;-73
2023/05/15 04:42:04;;;;;;;36.30;26.50;;;15.00;99.90;;;;;;5014752;28;20170;-73
2023/05/15 04:44:29;;;;;;;32.80;24.20;;;15.00;99.90;;;;;;5049722;28;20298;-73
2023/05/15 04:46:55;;;;;;;34.77;23.93;;;15.10;99.90;;;;;;5052996;28;20437;-73
2023/05/15 04:49:21;;;;;;;38.30;25.93;;;15.20;99.90;;;;;;5056221;28;20171;-73
2023/05/15 04:51:46;;;;;;;40.47;26.77;;;15.20;99.90;;;;;;5054877;28;20307;-73
2023/05/15 04:54:12;;;;;;;40.23;27.30;;;15.30;99.90;;;;;;5056125;28;20716;-73
2023/05/15 04:56:38;;;;;;;38.63;27.60;;;15.30;99.90;;;;;;5055227;28;20212;-73
2023/05/15 04:59:04;;;;;;;46.20;31.30;;;15.40;99.90;;;;;;5038109;28;20179;-73
2023/05/15 05:01:32;;;;;;;41.90;28.77;;;15.40;99.90;;;;;;5055585;28;20179;-74
2023/05/15 05:03:57;;;;;;;39.27;26.90;;;15.40;99.90;;;;;;5055931;28;20407;-74
2023/05/15 05:06:23;;;;;;;37.53;26.80;;;15.50;99.90;;;;;;5049307;28;20652;-74
2023/05/15 05:08:49;;;;;;;42.87;29.20;;;15.40;99.90;;;;;;5043760;28;20200;-74
2023/05/15 05:11:14;;;;;;;46.20;30.50;;;15.50;99.90;;;;;;5055896;28;20177;-74
2023/05/15 05:13:41;;;;;;;44.47;29.87;;;15.50;99.90;;;;;;5051148;28;20201;-74
2023/05/15 05:16:07;;;;;;;43.63;29.73;;;15.60;99.90;;;;;;5053583;28;20566;-74
2023/05/15 05:18:32;;;;;;;48.47;33.00;;;15.60;99.90;;;;;;5034076;28;20451;-73
2023/05/15 05:21:02;;;;;;;49.40;31.27;;;15.70;99.90;;;;;;5045353;28;20184;-74
2023/05/15 05:23:31;;;;;;;41.87;29.73;;;15.80;99.90;;;;;;5021285;28;20319;-74
2023/05/15 05:25:58;;;;;;;45.57;32.50;;;15.80;99.90;;;;;;5044356;28;20423;-74
2023/05/15 05:28:24;;;;;;;40.40;29.13;;;15.80;99.90;;;;;;5055410;28;20419;-73
2023/05/15 05:30:50;;;;;;;43.07;30.50;;;15.90;99.90;;;;;;5044133;28;20925;-74
2023/05/15 05:33:16;;;;;;;43.70;33.10;;;15.90;99.90;;;;;;5038939;28;20237;-74
2023/05/15 05:35:41;;;;;;;44.27;29.80;;;15.90;99.90;;;;;;5039552;28;20201;-74
2023/05/15 05:38:07;;;;;;;39.80;29.37;;;16.00;99.90;;;;;;5055427;28;20185;-74
2023/05/15 05:40:33;;;;;;;42.47;31.07;;;16.00;99.90;;;;;;5054951;28;20248;-74
2023/05/15 05:43:02;;;;;;;38.67;30.23;;;16.00;99.90;;;;;;5051430;28;20177;-74
2023/05/15 05:45:28;;;;;;;41.80;27.63;;;16.10;99.90;;;;;;5055457;28;20181;-74
2023/05/15 05:47:55;;;;;;;40.17;28.40;;;16.10;99.90;;;;;;5054179;28;20478;-74
2023/05/15 05:50:21;;;;;;;40.63;29.50;;;16.10;99.90;;;;;;5053498;28;20435;-74
2023/05/15 05:52:47;;;;;;;42.77;30.20;;;16.10;99.90;;;;;;5055042;28;20454;-74
2023/05/15 05:55:13;;;;;;;44.47;31.50;;;16.10;99.90;;;;;;5054210;28;20763;-74
2023/05/15 05:57:38;;;;;;;46.97;33.43;;;16.10;99.90;;;;;;5053561;28;20181;-74
2023/05/15 06:00:08;;;;;;;47.87;32.77;;;16.10;99.90;;;;;;5052720;28;20260;-74
2023/05/15 06:02:34;;;;;;;47.63;32.50;;;16.10;99.90;;;;;;5048404;28;20281;-74
2023/05/15 06:05:00;;;;;;;56.50;34.57;;;16.10;99.90;;;;;;5053807;28;20486;-74
2023/05/15 06:07:26;;;;;;;55.50;35.47;;;16.20;99.90;;;;;;5054733;28;20407;-74
2023/05/15 06:09:52;;;;;;;54.97;36.20;;;16.20;99.90;;;;;;5052063;28;20924;-74
2023/05/15 06:12:18;;;;;;;57.70;37.80;;;16.20;99.90;;;;;;5038578;28;20535;-73
2023/05/15 06:14:44;;;;;;;56.40;33.90;;;16.20;99.90;;;;;;5033876;28;20212;-74
2023/05/15 06:17:10;;;;;;;57.77;38.23;;;16.30;99.90;;;;;;5053793;28;20289;-74
2023/05/15 06:19:35;;;;;;;54.00;36.80;;;16.30;99.90;;;;;;5033531;28;20192;-74
2023/05/15 06:22:01;;;;;;;60.73;38.80;;;16.30;99.90;;;;;;5048289;28;20566;-74
2023/05/15 06:24:27;;;;;;;57.87;38.43;;;16.30;99.90;;;;;;5045134;28;20192;-74
2023/05/15 06:26:53;;;;;;;62.00;38.60;;;16.20;99.90;;;;;;5054194;28;20633;-74
2023/05/15 06:29:19;;;;;;;59.30;37.03;;;16.20;99.90;;;;;;5039880;28;20184;-74
2023/05/15 06:31:45;;;;;;;62.23;40.07;;;16.20;99.90;;;;;;5050291;28;20235;-73
2023/05/15 06:34:10;;;;;;;54.67;36.50;;;16.20;99.90;;;;;;5047899;28;20426;-75
2023/05/15 06:36:36;;;;;;;65.03;40.97;;;16.20;99.90;;;;;;5047166;28;20659;-75
2023/05/15 06:39:02;;;;;;;73.73;39.17;;;16.30;99.90;;;;;;5037283;28;20685;-76
2023/05/15 06:41:28;;;;;;;59.80;40.27;;;16.20;99.90;;;;;;5037202;28;20525;-79
2023/05/15 06:43:54;;;;;;;59.50;39.43;;;16.20;99.90;;;;;;5046716;28;20699;-75
2023/05/15 06:46:20;;;;;;;60.00;41.42;;;16.30;99.90;;;;;;5052564;28;20412;-76
2023/05/15 06:48:48;;;;;;;57.23;39.80;;;16.60;99.90;;;;;;5052506;28;20579;-76
2023/05/15 06:51:14;;;;;;;54.73;36.00;;;16.80;99.90;;;;;;5053959;28;20448;-76
2023/05/15 06:53:41;;;;;;;49.03;38.33;;;17.00;99.90;;;;;;5051313;28;21036;-76
2023/05/15 06:56:07;;;;;;;52.47;36.50;;;17.40;99.90;;;;;;5052755;28;20255;-76
2023/05/15 06:58:33;;;;;;;50.73;37.23;;;17.60;99.90;;;;;;5036413;28;20404;-76
2023/05/15 07:01:00;;;;;;;57.00;37.77;;;17.80;99.90;;;;;;5053646;28;20170;-75
2023/05/15 07:03:26;;;;;;;53.30;39.43;;;17.90;99.90;;;;;;5052356;28;20646;-78
2023/05/15 07:05:52;;;;;;;53.50;39.33;;;18.10;99.90;;;;;;5049709;28;20462;-77
2023/05/15 07:08:18;;;;;;;49.83;35.73;;;18.20;99.90;;;;;;5052035;28;20253;-77
2023/05/15 07:10:44;;;;;;;54.23;36.20;;;18.30;99.90;;;;;;5047188;28;20470;-77
2023/05/15 07:13:10;;;;;;;55.40;38.90;;;18.50;99.90;;;;;;5036091;28;20416;-77
2023/05/15 07:15:35;;;;;;;55.37;38.30;;;18.50;99.90;;;;;;5053756;28;20193;-77
2023/05/15 07:18:01;;;;;;;53.37;38.53;;;18.60;99.90;;;;;;5052597;28;20182;-77
2023/05/15 07:20:27;;;;;;;55.60;37.90;;;18.70;99.90;;;;;;5053591;28;20170;-77
2023/05/15 07:22:53;;;;;;;42.27;30.80;;;18.80;99.90;;;;;;5049514;28;20557;-76
2023/05/15 07:25:18;;;;;;;54.33;38.33;;;18.90;99.90;;;;;;5051294;28;20208;-77
2023/05/15 07:27:44;;;;;;;43.97;32.50;;;18.90;99.90;;;;;;5052416;28;20190;-83
2023/05/15 07:30:10;;;;;;;54.50;38.43;;;19.00;99.90;;;;;;5052891;28;20182;-77
2023/05/15 07:32:36;;;;;;;60.47;39.77;;;19.10;99.90;;;;;;5034238;28;20200;-77
2023/05/15 07:35:03;;;;;;;50.57;35.83;;;19.20;99.90;;;;;;5043351;28;20971;-76
2023/05/15 07:37:29;;;;;;;49.07;35.70;;;19.20;99.90;;;;;;5052622;28;20181;-77
2023/05/15 07:39:55;;;;;;;59.47;41.37;;;19.20;99.90;;;;;;5052933;28;20850;-76
2023/05/15 07:42:21;;;;;;;49.10;35.77;;;19.30;99.90;;;;;;5039470;28;20433;-76
2023/05/15 07:44:47;;;;;;;54.10;37.70;;;19.30;99.90;;;;;;5041205;28;20209;-77
2023/05/15 07:47:13;;;;;;;54.80;38.17;;;19.40;99.90;;;;;;5045597;28;20642;-82
2023/05/15 07:49:39;;;;;;;58.37;38.43;;;19.40;99.90;;;;;;5019577;28;20188;-78
2023/05/15 07:52:05;;;;;;;59.53;40.23;;;19.40;99.90;;;;;;5036077;28;20488;-77
2023/05/15 07:54:31;;;;;;;58.97;40.80;;;19.30;99.90;;;;;;5053077;28;20417;-76
2023/05/15 07:56:57;;;;;;;54.03;36.60;;;19.30;99.90;;;;;;5055184;28;20478;-76
2023/05/15 07:59:23;;;;;;;59.87;39.63;;;19.30;99.90;;;;;;5064976;28;20427;-76
2023/05/15 08:01:50;;;;;;;56.77;38.83;;;19.30;99.90;;;;;;5072333;28;20490;-76
2023/05/15 08:04:16;;;;;;;56.83;38.37;;;19.30;99.90;;;;;;5073081;28;20883;-76
2023/05/15 08:06:42;;;;;;;60.63;39.97;;;19.30;99.90;;;;;;5061232;28;20264;-78
2023/05/15 08:09:08;;;;;;;62.23;40.30;;;19.30;99.90;;;;;;5054554;28;20177;-77
2023/05/15 08:11:35;;;;;;;63.37;42.47;;;19.10;99.90;;;;;;5072815;28;20414;-78
2023/05/15 08:14:01;;;;;;;66.20;41.87;;;19.10;99.90;;;;;;5054091;28;20184;-76
2023/05/15 08:16:26;;;;;;;64.60;41.73;;;19.20;99.90;;;;;;5050038;28;20456;-76
2023/05/15 08:18:57;;;;;;;54.93;37.90;;;19.20;99.90;;;;;;5063634;28;20862;-76
2023/05/15 08:21:22;;;;;;;58.93;40.13;;;19.30;99.90;;;;;;5069541;28;20188;-76
2023/05/15 08:23:48;;;;;;;56.67;40.57;;;19.40;99.90;;;;;;5071717;28;20419;-76
2023/05/15 08:26:14;;;;;;;67.73;43.93;;;19.50;99.90;;;;;;5068509;28;20188;-76
2023/05/15 08:28:40;;;;;;;52.10;36.60;;;19.50;99.90;;;;;;5065824;28;20197;-75
2023/05/15 08:31:07;;;;;;;56.20;38.27;;;19.50;99.90;;;;;;5070822;28;20173;-76
2023/05/15 08:33:33;;;;;;;59.43;41.13;;;19.70;99.90;;;;;;5067501;28;20518;-77
2023/05/15 08:35:59;;;;;;;61.73;42.77;;;19.80;99.90;;;;;;5071767;28;20201;-76
2023/05/15 08:38:25;;;;;;;63.90;43.90;;;19.80;99.90;;;;;;5072910;28;20169;-77
2023/05/15 08:40:53;;;;;;;54.90;38.27;;;19.80;99.90;;;;;;5063302;28;20429;-77
2023/05/15 08:43:21;;;;;;;52.60;38.87;;;19.80;99.90;;;;;;5071344;28;20180;-76
2023/05/15 08:45:48;;;;;;;45.20;33.47;;;19.80;99.90;;;;;;5070823;28;20782;-76
2023/05/15 08:48:16;;;;;;;59.13;40.93;;;20.00;99.90;;;;;;5060624;28;20507;-76
2023/05/15 08:50:43;;;;;;;60.03;40.57;;;20.10;99.90;;;;;;5060715;28;20464;-75
2023/05/15 08:53:12;;;;;;;52.47;40.33;;;19.90;99.90;;;;;;5047998;28;20531;-76
2023/05/15 08:55:39;;;;;;;59.43;42.00;;;19.80;99.90;;;;;;5049369;28;20562;-76
2023/05/15 08:58:06;;;;;;;54.27;42.10;;;19.80;99.90;;;;;;5051509;28;20812;-76
2023/05/15 09:00:32;;;;;;;54.27;40.80;;;19.70;99.90;;;;;;5044525;28;20401;-76
2023/05/15 09:03:00;;;;;;;58.40;41.73;;;19.50;99.90;;;;;;5031835;28;20417;-75
2023/05/15 09:05:30;;;;;;;53.87;41.03;;;19.30;99.90;;;;;;5032419;28;20389;-75
2023/05/15 09:08:01;;;;;;;52.47;40.57;;;19.30;99.90;;;;;;5051600;28;20784;-75
2023/05/15 09:10:28;;;;;;;51.27;39.97;;;19.30;99.90;;;;;;5052078;28;20896;-76
2023/05/15 09:12:54;;;;;;;53.17;39.23;;;19.40;99.90;;;;;;5042164;28;20759;-78
2023/05/15 09:15:23;;;;;;;50.20;39.47;;;19.50;99.90;;;;;;5032199;28;20401;-77
2023/05/15 09:17:50;;;;;;;53.03;40.70;;;19.50;99.90;;;;;;5043877;28;20593;-77
2023/05/15 09:20:36;;;;;;;47.00;38.50;;;19.70;99.90;;;;;;5046493;28;20431;-78
2023/05/15 09:23:19;;;;;;;48.80;39.00;;;19.80;99.90;;;;;;5036328;28;20443;-78
2023/05/15 09:25:51;;;;;;;43.20;34.30;;;20.10;99.90;;;;;;5037022;28;20411;-78
2023/05/15 09:28:29;;;;;;;44.53;36.83;;;20.30;99.90;;;;;;5041633;28;20424;-76
2023/05/15 09:31:03;;;;;;;40.23;34.83;;;20.60;99.90;;;;;;5041231;28;20431;-77
2023/05/15 09:33:39;;;;;;;47.90;35.40;;;20.80;99.90;;;;;;5051868;28;20502;-78
2023/05/15 09:36:06;;;;;;;37.93;32.70;;;21.10;99.90;;;;;;5047094;28;20542;-77
2023/05/15 09:38:33;;;;;;;42.33;36.43;;;21.30;99.90;;;;;;5055657;28;20423;-78
2023/05/15 09:41:07;;;;;;;42.80;37.27;;;21.50;99.90;;;;;;5054239;28;20408;-78
2023/05/15 09:43:37;;;;;;;42.30;37.77;;;21.70;99.90;;;;;;5036602;28;20413;-77
2023/05/15 09:46:04;;;;;;;42.40;37.67;;;21.80;99.90;;;;;;5035286;28;20547;-77
2023/05/15 09:48:30;;;;;;;39.20;34.93;;;21.90;99.90;;;;;;5035642;28;20412;-77
2023/05/15 09:50:56;;;;;;;38.97;34.87;;;21.90;98.40;;;;;;5037585;28;20616;-78
2023/05/15 09:53:23;;;;;;;39.53;35.37;;;22.00;99.30;;;;;;5055958;28;20974;-78
2023/05/15 09:55:49;;;;;;;37.13;33.20;;;22.10;98.90;;;;;;5071362;28;20446;-78
2023/05/15 09:58:18;;;;;;;35.30;31.60;;;22.10;98.40;;;;;;5064579;28;20931;-79
2023/05/15 10:00:45;;;;;;;35.43;31.23;;;22.20;97.70;;;;;;5067788;28;20752;-77
2023/05/15 10:03:12;;;;;;;33.67;30.20;;;22.20;97.70;;;;;;5064440;28;20451;-78
2023/05/15 10:05:38;;;;;;;32.73;29.33;;;22.30;97.10;;;;;;5048831;28;20858;-78
2023/05/15 10:08:04;;;;;;;31.13;27.90;;;22.40;97.80;;;;;;5067277;28;20419;-77
2023/05/15 10:10:31;;;;;;;29.90;26.83;;;22.50;96.40;;;;;;5075387;28;20753;-78
2023/05/15 10:13:00;;;;;;;30.93;27.87;;;22.50;96.80;;;;;;5069212;28;20766;-78
2023/05/15 10:15:27;;;;;;;28.80;25.97;;;22.60;96.00;;;;;;5066807;28;20965;-78
2023/05/15 10:17:53;;;;;;;32.17;28.97;;;22.70;96.40;;;;;;5066755;28;20515;-76
2023/05/15 10:20:24;;;;;;;25.97;23.57;;;22.80;93.90;;;;;;5069395;28;20423;-76
2023/05/15 10:22:55;;;;;;;26.07;23.57;;;22.80;94.00;;;;;;5043147;28;20772;-78
2023/05/15 10:25:39;;;;;;;24.80;22.50;;;22.90;93.90;;;;;;5074387;28;20411;-78
2023/05/15 10:28:09;;;;;;;26.17;23.60;;;23.00;94.70;;;;;;5073330;28;20422;-78
2023/05/15 10:30:35;;;;;;;23.47;21.00;;;23.10;94.70;;;;;;5073982;28;20815;-78
2023/05/15 10:33:03;;;;;;;22.30;20.13;;;23.10;95.50;;;;;;5053670;28;20416;-78
2023/05/15 10:35:29;;;;;;;19.93;18.13;;;23.20;94.00;;;;;;5070089;28;20799;-78
2023/05/15 10:37:56;;;;;;;24.83;22.43;;;23.30;94.50;;;;;;5073478;28;20422;-78
2023/05/15 10:40:23;;;;;;;24.20;21.67;;;23.30;93.10;;;;;;5062299;28;20499;-78
2023/05/15 10:42:49;;;;;;;23.97;21.47;;;23.30;93.80;;;;;;5064174;28;20411;-78
2023/05/15 10:45:15;;;;;;;24.23;21.67;;;23.20;93.40;;;;;;5064639;28;20903;-77
2023/05/15 10:47:42;;;;;;;26.43;24.10;;;23.20;94.20;;;;;;5072343;28;20514;-77
2023/05/15 10:50:11;;;;;;;22.97;20.80;;;23.20;92.40;;;;;;5072185;28;20468;-77
2023/05/15 10:52:38;;;;;;;23.47;21.37;;;23.10;93.40;;;;;;5068016;28;20471;-77
2023/05/15 10:55:08;;;;;;;23.63;21.27;;;23.00;92.40;;;;;;5070736;28;20468;-78
2023/05/15 10:57:35;;;;;;;22.67;20.60;;;23.00;92.70;;;;;;5068451;28;20443;-78
2023/05/15 11:00:04;;;;;;;21.20;19.20;;;23.00;93.00;;;;;;5068724;28;20922;-75
2023/05/15 11:02:36;;;;;;;20.30;18.57;;;22.90;92.20;;;;;;5072722;28;20426;-76
2023/05/15 11:05:02;;;;;;;20.13;18.13;;;22.80;92.20;;;;;;5068647;28;20499;-75
2023/05/15 11:07:28;;;;;;;20.73;19.00;;;22.80;93.20;;;;;;5068619;28;20427;-75
2023/05/15 11:09:55;;;;;;;20.03;18.07;;;22.80;92.70;;;;;;5069168;28;20423;-76
2023/05/15 11:12:21;;;;;;;21.77;19.77;;;22.90;93.40;;;;;;5071323;28;20863;-76
2023/05/15 11:14:56;;;;;;;20.20;18.40;;;22.90;91.80;;;;;;5072728;28;20431;-76
2023/05/15 11:17:23;;;;;;;22.20;18.20;;;23.00;92.40;;;;;;5072119;28;20465;-77
2023/05/15 11:19:48;;;;;;;20.03;18.30;;;23.10;92.40;;;;;;5069046;28;20783;-77
2023/05/15 11:22:15;;;;;;;18.60;17.10;;;23.10;92.90;;;;;;5073140;28;20428;-76
2023/05/15 11:24:59;;;;;;;18.30;16.60;;;23.10;91.00;;;;;;5072524;28;20617;-78
2023/05/15 11:27:43;;;;;;;18.37;16.53;;;23.00;91.00;;;;;;5071241;28;20496;-76
2023/05/15 11:30:10;;;;;;;17.47;15.90;;;22.90;91.10;;;;;;5070922;28;20436;-76
2023/05/15 11:32:42;;;;;;;17.90;16.40;;;22.80;92.30;;;;;;5069313;28;20918;-77
2023/05/15 11:35:23;;;;;;;16.57;14.73;;;22.70;91.90;;;;;;5069813;28;20437;-76
2023/05/15 11:37:55;;;;;;;15.70;14.23;;;22.80;92.00;;;;;;5073478;28;20412;-77
2023/05/15 11:40:26;;;;;;;15.40;13.80;;;22.90;91.60;;;;;;5066697;28;21002;-77
2023/05/15 11:42:58;;;;;;;16.63;15.03;;;23.00;91.20;;;;;;5056201;28;20428;-77
2023/05/15 11:45:24;;;;;;;15.00;13.60;;;23.10;90.30;;;;;;5064240;28;20432;-77
2023/05/15 11:47:50;;;;;;;15.40;13.97;;;23.20;91.00;;;;;;5069267;28;20415;-76
2023/05/15 11:50:16;;;;;;;15.83;14.23;;;23.30;89.30;;;;;;5068145;28;20205;-76
2023/05/15 11:52:43;;;;;;;14.73;13.53;;;23.20;88.70;;;;;;5045412;28;20562;-77
2023/05/15 11:55:09;;;;;;;14.33;13.13;;;23.10;86.90;;;;;;5052226;28;20758;-77
2023/05/15 11:57:37;;;;;;;15.43;14.20;;;23.20;90.80;;;;;;5053192;28;20424;-77
2023/05/15 12:00:05;;;;;;;13.80;12.80;;;23.10;90.70;;;;;;5048360;28;20428;-77
2023/05/15 12:02:30;;;;;;;13.07;12.03;;;23.10;89.80;;;;;;5046858;28;20513;-77
2023/05/15 12:04:56;;;;;;;12.43;11.40;;;23.00;86.90;;;;;;5051318;28;20507;-76
2023/05/15 12:07:22;;;;;;;15.23;13.63;;;23.00;87.00;;;;;;5049932;28;20185;-74
2023/05/15 12:09:51;;;;;;;13.47;12.07;;;23.00;86.50;;;;;;5051028;28;20174;-75
2023/05/15 12:12:17;;;;;;;13.10;12.00;;;23.10;87.00;;;;;;5050970;28;20178;-75
2023/05/15 12:14:43;;;;;;;11.80;10.80;;;23.20;88.10;;;;;;5031964;28;20427;-75
2023/05/15 12:17:08;;;;;;;11.47;10.60;;;23.30;83.20;;;;;;5052070;28;20202;-75
2023/05/15 12:19:36;;;;;;;10.90;10.00;;;23.30;81.50;;;;;;5051953;28;20173;-75
2023/05/15 12:22:04;;;;;;;14.60;13.40;;;23.40;83.10;;;;;;5041679;28;20177;-77
2023/05/15 12:24:31;;;;;;;11.57;10.67;;;23.30;81.90;;;;;;5051628;28;20435;-76
2023/05/15 12:26:57;;;;;;;11.90;11.00;;;23.50;84.80;;;;;;5050146;28;20432;-75
2023/05/15 12:29:24;;;;;;;10.80;10.00;;;23.60;79.30;;;;;;5050122;28;20428;-77
2023/05/15 12:31:52;;;;;;;12.90;11.80;;;23.70;83.10;;;;;;5051642;28;20188;-76
2023/05/15 12:34:19;;;;;;;11.20;10.47;;;23.80;82.80;;;;;;5032273;28;20416;-76